Time;durP1;ratioP1;P1;durP2;ratioP2;P2;SDS_P1;SDS_P2;PMS_P1;PMS_P2;Temp;Humidity;BMP_temperature;BMP_pressure;BME280_temperature;BME280_humidity;BME280_pressure;Samples;Min_cycle;Max_cycle;Signal;HPM_P1;HPM_P2
2021/09/07 00:00:49;;;;;;;47.58;22.98;;;;;;;17.85;77.91;101659.41;4953296;28;20047;-81
2021/09/07 00:03:16;;;;;;;41.08;21.45;;;;;;;17.87;77.71;101667.47;4953294;28;20086;-81
2021/09/07 00:05:42;;;;;;;37.90;20.65;;;;;;;17.85;77.77;101670.63;4953636;28;20083;-81
2021/09/07 00:08:09;;;;;;;40.47;21.92;;;;;;;17.85;77.94;101667.81;4937496;29;20411;-81
2021/09/07 00:10:36;;;;;;;41.53;20.67;;;;;;;17.84;77.78;101660.63;4951979;28;20067;-81
2021/09/07 00:13:03;;;;;;;39.33;19.85;;;;;;;17.89;77.72;101659.50;4934996;28;20067;-81
2021/09/07 00:15:30;;;;;;;37.08;19.15;;;;;;;17.92;77.57;101655.94;4948647;28;20114;-80
2021/09/07 00:17:57;;;;;;;38.08;20.70;;;;;;;17.93;77.96;101657.56;4936262;28;20537;-82
2021/09/07 00:20:23;;;;;;;33.75;16.77;;;;;;;17.93;77.71;101654.75;4954068;28;20130;-80
2021/09/07 00:22:50;;;;;;;43.92;19.65;;;;;;;17.89;77.96;101657.50;4954042;28;20098;-81
2021/09/07 00:25:17;;;;;;;45.83;20.05;;;;;;;17.87;77.87;101653.47;4953273;28;20039;-81
2021/09/07 00:27:44;;;;;;;45.63;20.70;;;;;;;17.86;77.97;101651.81;4943867;28;20039;-80
2021/09/07 00:30:11;;;;;;;40.30;21.33;;;;;;;17.87;77.92;101645.84;4953607;28;20054;-81
2021/09/07 00:32:38;;;;;;;39.85;19.92;;;;;;;17.82;77.94;101643.34;4939924;28;20074;-81
2021/09/07 00:35:07;;;;;;;39.20;19.95;;;;;;;17.81;78.39;101643.72;4928589;29;20103;-81
2021/09/07 00:37:35;;;;;;;43.58;21.70;;;;;;;17.77;78.25;101648.44;4953487;28;20070;-80
2021/09/07 00:40:02;;;;;;;34.60;17.65;;;;;;;17.74;78.38;101657.63;4944594;28;20504;-81
2021/09/07 00:42:28;;;;;;;41.35;19.92;;;;;;;17.74;78.38;101640.81;4960855;28;20131;-82
2021/09/07 00:44:55;;;;;;;40.28;19.67;;;;;;;17.73;78.38;101641.97;4934138;28;20055;-82
2021/09/07 00:47:22;;;;;;;47.25;20.23;;;;;;;17.70;78.23;101639.91;4952248;28;20125;-81
2021/09/07 00:49:48;;;;;;;41.53;20.33;;;;;;;17.67;78.48;101635.88;4941730;28;20526;-80
2021/09/07 00:52:15;;;;;;;40.45;19.23;;;;;;;17.68;78.46;101636.69;4952303;28;20039;-81
2021/09/07 00:54:44;;;;;;;39.47;19.52;;;;;;;17.67;78.55;101630.28;4952554;28;20053;-78
2021/09/07 00:57:11;;;;;;;45.08;19.70;;;;;;;17.69;78.64;101629.88;4936867;28;20043;-79
2021/09/07 00:59:38;;;;;;;45.53;21.70;;;;;;;17.64;78.40;101626.22;4951564;28;20058;-80
2021/09/07 01:02:06;;;;;;;43.92;21.20;;;;;;;17.64;78.61;101631.00;4947874;28;20055;-79
2021/09/07 01:04:33;;;;;;;37.90;19.20;;;;;;;17.66;78.80;101633.47;4945855;28;20047;-79
2021/09/07 01:07:04;;;;;;;57.55;23.20;;;;;;;17.66;78.79;101633.47;4952930;28;20055;-78
2021/09/07 01:09:31;;;;;;;48.35;21.00;;;;;;;17.67;78.70;101635.06;4953771;28;20045;-79
2021/09/07 01:11:58;;;;;;;49.78;23.05;;;;;;;17.64;79.20;101626.22;4951344;28;20582;-79
2021/09/07 01:14:34;;;;;;;54.80;24.63;;;;;;;17.60;79.45;101619.75;4936639;28;20047;-78
2021/09/07 01:17:02;;;;;;;46.63;22.00;;;;;;;17.60;79.51;101613.34;4934613;28;20516;-79
2021/09/07 01:19:30;;;;;;;55.60;25.80;;;;;;;17.61;79.21;101612.97;4955573;28;20043;-78
2021/09/07 01:21:57;;;;;;;56.08;22.33;;;;;;;17.60;79.49;101614.16;4951576;28;20052;-78
2021/09/07 01:24:26;;;;;;;50.00;22.38;;;;;;;17.60;79.49;101619.75;4952627;28;20480;-78
2021/09/07 01:26:53;;;;;;;50.55;22.75;;;;;;;17.61;79.66;101612.16;4938800;28;20043;-79
2021/09/07 01:29:20;;;;;;;47.05;21.52;;;;;;;17.60;79.74;101616.97;4935462;28;20161;-79
2021/09/07 01:31:50;;;;;;;59.30;25.15;;;;;;;17.63;79.76;101619.00;4928256;29;20054;-79
2021/09/07 01:34:22;;;;;;;58.70;24.92;;;;;;;17.60;80.06;101604.94;4952696;28;20106;-79
2021/09/07 01:36:49;;;;;;;53.92;25.05;;;;;;;17.60;79.78;101602.97;4946772;28;20041;-80
2021/09/07 01:39:21;;;;;;;56.42;23.30;;;;;;;17.62;79.89;101588.56;4940408;28;20539;-81
2021/09/07 01:41:49;;;;;;;56.25;23.75;;;;;;;17.59;80.01;101597.72;4924624;28;20052;-81
2021/09/07 01:44:17;;;;;;;57.95;24.73;;;;;;;17.55;80.27;101600.44;4949011;28;20043;-81
2021/09/07 01:46:44;;;;;;;51.60;23.38;;;;;;;17.50;80.38;101586.72;4936179;28;20053;-81
2021/09/07 01:49:13;;;;;;;64.60;25.55;;;;;;;17.50;80.39;101586.72;4966974;28;20050;-81
2021/09/07 01:51:42;;;;;;;69.82;26.92;;;;;;;17.50;80.57;101581.13;4951647;28;20047;-81
2021/09/07 01:54:10;;;;;;;86.22;27.05;;;;;;;17.50;80.64;101575.53;4951430;28;20051;-81
2021/09/07 01:56:38;;;;;;;58.35;25.30;;;;;;;17.48;80.55;101585.47;4949700;28;20138;-82
2021/09/07 01:59:04;;;;;;;63.33;28.65;;;;;;;17.44;80.71;101574.22;4934115;29;20051;-82
2021/09/07 02:01:31;;;;;;;52.17;23.60;;;;;;;17.47;80.47;101581.84;4952646;28;20047;-81
2021/09/07 02:03:58;;;;;;;90.18;27.00;;;;;;;17.55;80.55;101582.84;4951236;28;20035;-81
2021/09/07 02:06:26;;;;;;;56.28;25.13;;;;;;;17.54;80.49;101578.44;4951410;28;20051;-81
2021/09/07 02:08:53;;;;;;;72.50;24.98;;;;;;;17.53;80.41;101579.59;4944945;28;20134;-81
2021/09/07 02:11:19;;;;;;;81.13;30.63;;;;;;;17.52;80.28;101578.78;4946710;28;20043;-81
2021/09/07 02:13:46;;;;;;;67.65;28.30;;;;;;;17.50;80.60;101575.53;4935053;28;20051;-81
2021/09/07 02:16:13;;;;;;;84.13;31.52;;;;;;;17.48;80.60;101571.47;4954384;28;20447;-81
2021/09/07 02:18:40;;;;;;;76.90;28.92;;;;;;;17.45;80.73;101577.81;4935240;29;20051;-81
2021/09/07 02:21:06;;;;;;;89.05;33.80;;;;;;;17.48;80.73;101571.47;4936816;29;20061;-81
2021/09/07 02:23:33;;;;;;;80.47;32.28;;;;;;;17.48;80.77;101572.28;4945567;28;20364;-81
2021/09/07 02:26:00;;;;;;;72.88;30.85;;;;;;;17.53;80.81;101574.00;4954184;28;20507;-81
2021/09/07 02:28:26;;;;;;;72.93;30.63;;;;;;;17.55;80.63;101561.25;4951309;28;20123;-80
2021/09/07 02:30:53;;;;;;;69.35;29.85;;;;;;;17.58;80.46;101566.09;4950398;28;20078;-81
2021/09/07 02:33:20;;;;;;;59.17;28.85;;;;;;;17.54;80.35;101564.44;4950733;28;20054;-81
2021/09/07 02:35:47;;;;;;;63.45;29.08;;;;;;;17.50;80.83;101558.72;4951330;28;20665;-81
2021/09/07 02:38:13;;;;;;;59.88;27.90;;;;;;;17.50;80.97;101558.72;4919060;29;20063;-80
2021/09/07 02:40:40;;;;;;;52.42;26.50;;;;;;;17.54;80.83;101559.63;4937498;28;20059;-82
2021/09/07 02:43:07;;;;;;;70.90;27.85;;;;;;;17.52;80.97;101556.38;4951114;28;20727;-81
2021/09/07 02:45:33;;;;;;;68.47;28.25;;;;;;;17.52;81.01;101558.38;4950287;28;20057;-80
2021/09/07 02:48:00;;;;;;;65.05;27.83;;;;;;;17.52;80.74;101556.38;4934454;28;20363;-81
2021/09/07 02:50:27;;;;;;;67.60;27.33;;;;;;;17.53;80.81;101552.41;4947322;28;20075;-81
2021/09/07 02:52:53;;;;;;;68.88;29.02;;;;;;;17.49;80.99;101556.31;4942967;28;20078;-81
2021/09/07 02:55:20;;;;;;;78.88;29.05;;;;;;;17.46;80.82;101560.66;4951946;28;20039;-81
2021/09/07 02:57:47;;;;;;;105.07;29.35;;;;;;;17.43;81.24;101558.59;4951872;28;20526;-81
2021/09/07 03:00:14;;;;;;;61.58;28.55;;;;;;;17.39;81.19;101552.16;4934175;29;20502;-81
2021/09/07 03:02:40;;;;;;;71.97;30.58;;;;;;;17.38;81.29;101547.72;4932806;29;20047;-81
2021/09/07 03:05:08;;;;;;;70.55;29.45;;;;;;;17.39;80.96;101545.72;4934845;29;20102;-81
2021/09/07 03:07:35;;;;;;;65.57;28.50;;;;;;;17.42;81.27;101551.38;4951305;28;20047;-81
2021/09/07 03:10:02;;;;;;;98.80;32.95;;;;;;;17.39;81.28;101538.16;4942625;28;20053;-81
2021/09/07 03:12:29;;;;;;;80.15;30.38;;;;;;;17.38;81.51;101544.09;4953953;28;20047;-81
2021/09/07 03:14:56;;;;;;;92.82;33.35;;;;;;;17.40;81.54;101547.31;4934367;28;20043;-81
2021/09/07 03:17:22;;;;;;;135.68;31.23;;;;;;;17.39;81.40;101540.94;4951286;28;20047;-81
2021/09/07 03:19:49;;;;;;;137.82;29.67;;;;;;;17.35;81.64;101540.06;4951820;28;20058;-81
2021/09/07 03:22:16;;;;;;;90.07;26.10;;;;;;;17.33;81.94;101542.44;4934986;28;20047;-81
2021/09/07 03:24:43;;;;;;;115.88;27.08;;;;;;;17.30;81.85;101550.75;4934079;28;20055;-81
2021/09/07 03:27:09;;;;;;;181.98;28.67;;;;;;;17.27;82.07;101549.50;4954418;28;20133;-82
2021/09/07 03:29:36;;;;;;;95.18;27.77;;;;;;;17.23;82.23;101548.63;4948686;28;20049;-81
2021/09/07 03:32:04;;;;;;;114.15;28.70;;;;;;;17.25;82.26;101549.06;4956354;28;20047;-81
2021/09/07 03:34:30;;;;;;;290.23;36.25;;;;;;;17.25;82.24;101540.66;4954143;28;20044;-81
2021/09/07 03:36:57;;;;;;;181.40;29.95;;;;;;;17.27;82.31;101540.28;4958303;28;20042;-81
2021/09/07 03:39:24;;;;;;;134.57;28.67;;;;;;;17.31;82.39;101541.19;4953223;28;20047;-81
2021/09/07 03:41:51;;;;;;;132.38;29.13;;;;;;;17.29;82.44;101535.94;4954099;28;20047;-81
2021/09/07 03:44:17;;;;;;;127.43;28.63;;;;;;;17.30;82.62;101539.56;4954323;28;20779;-81
2021/09/07 03:46:44;;;;;;;236.38;31.95;;;;;;;17.25;82.71;101528.66;4923893;29;20055;-81
2021/09/07 03:49:11;;;;;;;333.50;32.78;;;;;;;17.19;82.63;101536.56;4937586;28;20647;-81
2021/09/07 03:51:37;;;;;;;218.45;30.42;;;;;;;17.18;82.77;101543.34;4952655;28;20404;-80
2021/09/07 03:54:04;;;;;;;182.95;28.33;;;;;;;17.18;82.91;101543.34;4954475;28;20043;-81
2021/09/07 03:56:31;;;;;;;138.52;24.92;;;;;;;17.19;83.12;101533.75;4946627;28;20050;-82
2021/09/07 03:58:58;;;;;;;114.47;24.10;;;;;;;17.19;83.06;101536.56;4953518;28;20039;-81
2021/09/07 04:01:24;;;;;;;186.05;28.40;;;;;;;17.20;82.96;101540.16;4954329;28;20051;-82
2021/09/07 04:03:51;;;;;;;279.30;35.30;;;;;;;17.19;83.18;101539.34;4956441;28;20115;-81
2021/09/07 04:06:18;;;;;;;105.35;24.10;;;;;;;17.19;83.07;101541.34;4951683;28;20059;-81
2021/09/07 04:08:45;;;;;;;194.30;29.50;;;;;;;17.25;82.95;101537.06;4952682;29;20051;-81
2021/09/07 04:11:11;;;;;;;223.05;31.88;;;;;;;17.27;83.00;101538.31;4935999;29;20042;-81
2021/09/07 04:13:39;;;;;;;215.98;32.72;;;;;;;17.28;82.90;101537.13;4952749;28;20515;-81
2021/09/07 04:16:06;;;;;;;212.38;28.08;;;;;;;17.28;82.93;101533.53;4920362;28;20138;-81
2021/09/07 04:18:33;;;;;;;213.98;29.92;;;;;;;17.28;83.06;101539.94;4935942;28;20047;-81
2021/09/07 04:20:59;;;;;;;282.65;31.40;;;;;;;17.26;83.09;101524.69;4958473;28;20055;-81
2021/09/07 04:23:26;;;;;;;100.00;23.70;;;;;;;17.24;83.31;101536.25;4935850;28;20057;-81
2021/09/07 04:25:54;;;;;;;206.70;29.52;;;;;;;17.23;83.59;101525.44;4947965;28;20047;-81
2021/09/07 04:28:20;;;;;;;277.70;32.15;;;;;;;17.23;83.27;101517.03;4944694;28;20458;-81
2021/09/07 04:30:47;;;;;;;333.85;37.10;;;;;;;17.19;83.47;101525.34;4950768;28;20054;-81
2021/09/07 04:33:14;;;;;;;187.30;26.58;;;;;;;17.17;83.58;101530.53;4947085;28;20047;-81
2021/09/07 04:35:41;;;;;;;239.88;28.98;;;;;;;17.18;83.57;101523.75;4938831;28;20121;-81
2021/09/07 04:38:07;;;;;;;164.57;26.55;;;;;;;17.17;83.57;101530.53;4939846;28;20050;-81
2021/09/07 04:40:34;;;;;;;79.70;22.33;;;;;;;17.18;83.57;101532.16;4934187;28;20051;-83
2021/09/07 04:43:01;;;;;;;190.93;27.10;;;;;;;17.22;83.59;101529.41;4923640;28;20038;-81
2021/09/07 04:45:27;;;;;;;178.27;25.92;;;;;;;17.19;83.41;101519.75;4930117;28;20471;-82
2021/09/07 04:47:54;;;;;;;127.38;24.13;;;;;;;17.14;83.69;101525.66;4936878;29;20503;-81
2021/09/07 04:50:21;;;;;;;245.02;27.08;;;;;;;17.14;83.44;101525.66;4937109;28;20475;-81
2021/09/07 04:52:48;;;;;;;172.85;25.23;;;;;;;17.11;83.51;101523.59;4953692;28;20047;-82
2021/09/07 04:55:14;;;;;;;97.72;18.25;;;;;;;17.09;83.69;101534.38;4951511;28;20043;-81
2021/09/07 04:57:44;;;;;;;176.98;21.88;;;;;;;17.09;83.69;101531.56;4938900;28;20114;-81
2021/09/07 05:00:11;;;;;;;199.00;23.65;;;;;;;17.05;83.57;101525.06;4936476;29;20054;-81
2021/09/07 05:02:38;;;;;;;134.30;20.27;;;;;;;17.01;83.50;101527.00;4925231;28;20063;-81
2021/09/07 05:05:07;;;;;;;129.52;24.73;;;;;;;17.02;83.75;101531.44;4953054;28;20067;-81
2021/09/07 05:07:35;;;;;;;52.65;18.42;;;;;;;17.03;83.49;101535.84;4952379;28;20488;-81
2021/09/07 05:10:02;;;;;;;162.52;20.75;;;;;;;17.00;83.50;101534.59;4953531;28;20406;-81
2021/09/07 05:12:29;;;;;;;300.60;30.38;;;;;;;16.94;83.93;101535.28;4936635;29;20117;-81
2021/09/07 05:14:56;;;;;;;318.73;30.42;;;;;;;16.95;83.90;101531.28;4936563;29;20074;-81
2021/09/07 05:17:23;;;;;;;164.18;23.55;;;;;;;16.91;83.94;101536.00;4958846;28;20043;-81
2021/09/07 05:19:49;;;;;;;175.55;22.48;;;;;;;16.92;83.83;101532.00;4941288;28;20074;-80
2021/09/07 05:22:17;;;;;;;239.02;24.98;;;;;;;16.92;83.88;101537.59;4935212;28;20043;-81
2021/09/07 05:24:44;;;;;;;213.07;26.25;;;;;;;16.89;83.93;101527.19;4937120;28;20106;-81
2021/09/07 05:27:10;;;;;;;138.55;20.83;;;;;;;16.85;84.11;101521.50;4943904;29;20047;-80
2021/09/07 05:29:37;;;;;;;185.75;22.48;;;;;;;16.85;84.18;101527.09;4942903;28;20074;-81
2021/09/07 05:32:04;;;;;;;161.55;21.45;;;;;;;16.86;83.97;101531.53;4934102;28;20130;-81
2021/09/07 05:34:31;;;;;;;125.70;19.90;;;;;;;16.85;84.46;101529.06;4936201;29;20415;-81
2021/09/07 05:36:58;;;;;;;99.60;18.25;;;;;;;16.87;84.34;101523.91;4935756;28;20047;-81
2021/09/07 05:39:25;;;;;;;134.43;19.80;;;;;;;16.92;84.18;101532.00;4934609;29;20388;-81
2021/09/07 05:41:52;;;;;;;161.18;20.48;;;;;;;16.93;84.08;101528.84;4956437;28;20062;-81
2021/09/07 05:44:20;;;;;;;137.27;20.80;;;;;;;16.90;84.17;101529.59;4934733;28;20039;-82
2021/09/07 05:46:48;;;;;;;102.80;18.70;;;;;;;16.88;84.36;101525.56;4949275;28;20043;-81
2021/09/07 05:49:15;;;;;;;164.40;23.20;;;;;;;16.91;84.13;101530.41;4917780;28;20146;-80
2021/09/07 05:51:44;;;;;;;126.40;20.60;;;;;;;16.91;nan;101530.41;4929076;28;20051;-81
2021/09/07 05:54:11;;;;;;;166.48;22.17;;;;;;;16.91;84.31;101527.59;4953132;28;20046;-81
2021/09/07 05:56:38;;;;;;;161.73;19.95;;;;;;;16.91;84.32;101548.00;4951055;28;20053;-80
2021/09/07 05:59:09;;;;;;;162.48;18.65;;;;;;;16.91;84.15;101539.63;4952758;28;20043;-81
2021/09/07 06:01:37;;;;;;;145.88;20.08;;;;;;;16.92;84.01;101537.59;4952390;28;20057;-81
2021/09/07 06:04:11;;;;;;;111.75;18.48;;;;;;;16.94;83.89;101541.66;4960790;28;20050;-80
2021/09/07 06:06:38;;;;;;;190.00;25.58;;;;;;;16.96;83.81;101535.69;4952053;28;20063;-81
2021/09/07 06:09:05;;;;;;;143.80;20.30;;;;;;;16.93;84.32;101537.25;4951300;28;20039;-80
2021/09/07 06:11:33;;;;;;;69.28;17.83;;;;;;;16.95;84.51;101539.66;4944075;28;20053;-80
2021/09/07 06:14:00;;;;;;;117.22;19.05;;;;;;;16.93;84.51;101539.22;4954208;28;20046;-80
2021/09/07 06:16:27;;;;;;;201.48;22.20;;;;;;;16.94;84.38;101535.28;4963871;28;20134;-81
2021/09/07 06:18:53;;;;;;;198.63;21.33;;;;;;;16.90;84.20;101531.56;4939580;28;20039;-80
2021/09/07 06:21:20;;;;;;;109.22;17.90;;;;;;;16.85;84.19;101537.47;4950604;28;20114;-80
2021/09/07 06:23:59;;;;;;;170.60;18.80;;;;;;;16.83;84.51;101539.84;4950534;28;20043;-81
2021/09/07 06:26:26;;;;;;;169.48;20.80;;;;;;;16.83;84.62;101535.06;4951531;28;20499;-81
2021/09/07 06:28:52;;;;;;;119.88;18.38;;;;;;;16.82;84.43;101529.81;4950877;28;20090;-80
2021/09/07 06:31:19;;;;;;;151.23;19.92;;;;;;;16.80;84.34;101529.38;4955687;28;20043;-81
2021/09/07 06:33:46;;;;;;;167.90;20.67;;;;;;;16.79;84.50;101533.34;4950275;28;20047;-81
2021/09/07 06:36:13;;;;;;;68.57;16.35;;;;;;;16.82;84.67;101532.59;4936139;28;20094;-81
2021/09/07 06:38:40;;;;;;;97.47;16.98;;;;;;;16.87;84.78;101535.91;4954284;28;20070;-81
2021/09/07 06:41:07;;;;;;;136.98;19.90;;;;;;;16.86;84.89;101533.50;4953037;28;20058;-81
2021/09/07 06:43:35;;;;;;;97.53;17.10;;;;;;;16.87;85.03;101529.50;4957546;28;20412;-81
2021/09/07 06:46:02;;;;;;;203.75;21.17;;;;;;;16.89;84.97;101529.97;4950975;28;20130;-81
2021/09/07 06:48:29;;;;;;;229.70;25.88;;;;;;;16.84;84.64;101525.47;4940801;28;20050;-81
2021/09/07 06:50:59;;;;;;;229.98;24.52;;;;;;;16.84;84.72;101539.44;4949743;28;20161;-82
2021/09/07 06:53:26;;;;;;;242.85;24.95;;;;;;;16.85;84.79;101540.25;4952132;28;20050;-81
2021/09/07 06:55:53;;;;;;;161.70;24.50;;;;;;;16.85;85.05;101526.28;4949197;28;20051;-81
2021/09/07 06:58:21;;;;;;;176.52;22.23;;;;;;;16.86;85.33;101523.13;4951217;28;20047;-81
2021/09/07 07:00:48;;;;;;;188.07;23.33;;;;;;;16.87;84.99;101526.72;4949630;28;20071;-81
2021/09/07 07:03:15;;;;;;;157.45;22.27;;;;;;;16.89;85.00;101530.75;4946667;28;20038;-81
2021/09/07 07:05:43;;;;;;;140.38;19.33;;;;;;;16.89;85.20;101527.19;4955549;28;20059;-80
2021/09/07 07:08:10;;;;;;;130.95;20.92;;;;;;;16.93;85.13;101528.03;4958386;28;20043;-81
2021/09/07 07:10:37;;;;;;;194.32;22.25;;;;;;;16.95;85.20;101525.69;4950399;28;20039;-81
2021/09/07 07:13:05;;;;;;;125.43;19.42;;;;;;;16.96;85.36;101530.09;4949102;28;20039;-80
2021/09/07 07:15:32;;;;;;;63.08;16.15;;;;;;;17.02;85.39;101534.22;4941964;29;20057;-81
2021/09/07 07:17:59;;;;;;;166.60;21.90;;;;;;;17.11;85.43;101533.97;4939423;29;20559;-81
2021/09/07 07:20:26;;;;;;;125.82;18.58;;;;;;;17.15;85.42;101530.09;4949764;28;20051;-81
2021/09/07 07:22:52;;;;;;;114.63;18.55;;;;;;;17.20;85.16;101526.16;4955019;28;20213;-81
2021/09/07 07:25:19;;;;;;;127.05;17.98;;;;;;;17.23;84.96;101531.03;4932313;28;20122;-81
2021/09/07 07:27:46;;;;;;;118.68;18.60;;;;;;;17.24;85.13;101536.25;4933993;28;20142;-81
2021/09/07 07:30:13;;;;;;;85.18;17.15;;;;;;;17.25;85.02;101532.28;4946205;28;20044;-81
2021/09/07 07:32:40;;;;;;;112.13;20.98;;;;;;;17.30;85.05;101531.97;4951841;28;20778;-81
2021/09/07 07:35:07;;;;;;;155.50;21.55;;;;;;;17.30;84.94;101531.97;4937605;28;20415;-80
2021/09/07 07:37:34;;;;;;;185.48;22.05;;;;;;;17.31;84.84;101530.81;4942040;28;20114;-81
2021/09/07 07:40:01;;;;;;;203.88;24.75;;;;;;;17.30;84.79;101526.38;4946799;28;20043;-80
2021/09/07 07:42:29;;;;;;;167.88;20.17;;;;;;;17.27;84.90;101529.91;4909097;28;20054;-80
2021/09/07 07:44:56;;;;;;;143.55;24.00;;;;;;;17.26;84.82;101530.28;4932638;29;20095;-81
2021/09/07 07:47:22;;;;;;;155.23;24.55;;;;;;;17.27;84.98;101537.50;4928684;28;20126;-81
2021/09/07 07:49:49;;;;;;;129.60;24.50;;;;;;;17.32;85.18;101539.97;4919204;28;20039;-81
2021/09/07 07:52:16;;;;;;;88.90;21.25;;;;;;;17.32;85.26;101537.19;4943436;28;20039;-80
2021/09/07 07:54:44;;;;;;;148.02;25.65;;;;;;;17.36;85.25;101538.88;4945861;28;20051;-80
2021/09/07 07:57:11;;;;;;;117.60;23.92;;;;;;;17.41;85.36;101537.75;4953008;28;20047;-80
2021/09/07 07:59:38;;;;;;;89.65;23.33;;;;;;;17.46;85.16;101535.47;4949712;28;20043;-80
2021/09/07 08:02:06;;;;;;;72.15;22.23;;;;;;;17.52;84.95;101536.78;4950683;28;20067;-80
2021/09/07 08:04:51;;;;;;;131.10;24.80;;;;;;;17.60;84.69;101538.56;4950873;28;20051;-81
2021/09/07 08:07:18;;;;;;;163.27;28.55;;;;;;;17.64;84.62;101542.22;4942378;29;20070;-80
2021/09/07 08:09:44;;;;;;;104.95;26.48;;;;;;;17.70;84.36;101537.13;4920855;28;20053;-81
2021/09/07 08:12:16;;;;;;;61.85;22.08;;;;;;;17.68;84.49;101541.47;4942156;28;20058;-81
2021/09/07 08:14:45;;;;;;;84.22;20.70;;;;;;;17.69;84.83;101545.88;4950132;28;20053;-81
2021/09/07 08:17:12;;;;;;;156.55;26.27;;;;;;;17.74;84.50;101551.19;4935813;28;20051;-81
2021/09/07 08:19:39;;;;;;;74.20;23.75;;;;;;;17.74;84.12;101556.78;4936505;29;20117;-81
2021/09/07 08:22:08;;;;;;;87.68;25.98;;;;;;;17.78;84.31;101554.84;4950307;28;20054;-81
2021/09/07 08:24:36;;;;;;;60.28;23.75;;;;;;;17.82;84.35;101552.94;4927969;29;20044;-80
2021/09/07 08:27:03;;;;;;;78.25;23.45;;;;;;;17.81;84.19;101551.28;4943381;29;20040;-81
2021/09/07 08:29:30;;;;;;;54.38;23.50;;;;;;;17.82;84.08;101547.31;4951438;28;20047;-81
2021/09/07 08:31:57;;;;;;;47.63;23.77;;;;;;;17.84;84.24;101547.75;4936264;29;20499;-81
2021/09/07 08:34:24;;;;;;;43.00;22.77;;;;;;;17.85;84.13;101546.53;4953111;28;20054;-81
2021/09/07 08:36:51;;;;;;;46.28;21.40;;;;;;;17.91;83.90;101539.44;4942548;29;20102;-80
2021/09/07 08:39:17;;;;;;;45.55;23.20;;;;;;;17.92;84.12;101538.28;4954204;29;20047;-81
2021/09/07 08:41:44;;;;;;;50.72;23.80;;;;;;;17.95;83.88;101543.13;4941703;28;20631;-80
2021/09/07 08:44:11;;;;;;;40.92;22.27;;;;;;;17.93;83.98;101543.50;4936802;29;20037;-81
2021/09/07 08:46:38;;;;;;;39.92;21.00;;;;;;;18.01;83.70;101544.41;4918409;29;20055;-80
2021/09/07 08:49:18;;;;;;;37.80;20.10;;;;;;;18.07;83.35;101548.53;4940384;28;20118;-81
2021/09/07 08:51:46;;;;;;;35.95;19.90;;;;;;;18.06;83.35;101549.69;4933666;28;20074;-81
2021/09/07 08:54:13;;;;;;;34.67;21.35;;;;;;;18.07;83.24;101548.53;4934142;29;20054;-81
2021/09/07 08:56:41;;;;;;;40.33;22.33;;;;;;;18.06;83.10;101542.09;4953695;28;20046;-81
2021/09/07 08:59:08;;;;;;;37.10;22.10;;;;;;;18.06;83.05;101544.91;4951209;28;20141;-80
2021/09/07 09:01:39;;;;;;;41.92;22.13;;;;;;;18.10;83.00;101539.38;4943497;29;20047;-81
2021/09/07 09:04:24;;;;;;;30.88;18.85;;;;;;;18.20;82.66;101531.13;4936589;29;20043;-81
2021/09/07 09:06:51;;;;;;;28.98;16.65;;;;;;;18.29;82.94;101528.03;4950939;28;20051;-81
2021/09/07 09:09:18;;;;;;;24.85;17.50;;;;;;;18.41;82.61;101536.22;4937501;29;20547;-81
2021/09/07 09:11:57;;;;;;;22.42;15.18;;;;;;;18.59;82.55;101525.25;4948712;28;20043;-81
2021/09/07 09:14:37;;;;;;;29.90;17.25;;;;;;;18.74;82.09;101522.25;4936865;29;20047;-80
2021/09/07 09:17:16;;;;;;;24.27;15.38;;;;;;;18.79;81.37;101523.94;4936666;29;20053;-81
2021/09/07 09:19:57;;;;;;;30.70;17.83;;;;;;;18.88;81.53;101532.84;4947151;29;20150;-81
2021/09/07 09:22:42;;;;;;;34.38;19.27;;;;;;;18.97;80.27;101532.56;4930496;29;20048;-81
2021/09/07 09:25:42;;;;;;;25.45;16.67;;;;;;;18.96;80.88;101533.72;4961180;28;20066;-81
2021/09/07 09:28:18;;;;;;;33.63;19.38;;;;;;;19.00;80.55;101529.81;4944764;28;20491;-81
2021/09/07 09:30:55;;;;;;;26.90;16.88;;;;;;;19.04;79.98;101535.44;4949698;28;20050;-80
2021/09/07 09:33:25;;;;;;;28.75;16.10;;;;;;;19.16;80.60;101538.81;4940087;29;20047;-81
2021/09/07 09:35:59;;;;;;;24.35;15.95;;;;;;;19.42;80.28;101535.09;4952351;28;20047;-81
2021/09/07 09:38:29;;;;;;;24.90;18.05;;;;;;;20.25;80.56;101530.59;4949482;28;20097;-81
2021/09/07 09:40:59;;;;;;;22.08;15.00;;;;;;;21.09;78.83;101535.84;4937822;28;20137;-81
2021/09/07 09:43:44;;;;;;;24.23;15.95;;;;;;;21.72;77.73;101523.84;4940149;29;20062;-81
2021/09/07 09:46:28;;;;;;;20.98;15.65;;;;;;;22.39;75.19;101525.81;4931315;28;20548;-81
2021/09/07 09:49:15;;;;;;;21.20;13.00;;;;;;;23.02;72.58;101524.81;4950718;28;20098;-79
2021/09/07 09:51:43;;;;;;;16.17;11.68;;;;;;;23.39;71.71;101516.53;4947688;28;20047;-79
2021/09/07 09:54:22;;;;;;;16.15;11.32;;;;;;;23.81;69.95;101508.94;4953849;28;20450;-80
2021/09/07 09:56:50;;;;;;;17.17;12.02;;;;;;;24.04;67.96;101511.97;4959854;28;20049;-80
2021/09/07 09:59:20;;;;;;;13.48;10.20;;;;;;;24.30;66.59;101508.50;4932580;29;20472;-82
2021/09/07 10:01:46;;;;;;;18.15;10.50;;;;;;;24.57;65.39;101509.38;4938617;29;20106;-81
2021/09/07 10:04:14;;;;;;;13.07;9.35;;;;;;;24.75;64.19;101514.84;4951994;28;20444;-80
2021/09/07 10:06:42;;;;;;;17.05;11.40;;;;;;;24.91;62.65;101494.44;4950487;28;20060;-80
2021/09/07 10:09:09;;;;;;;16.58;10.57;;;;;;;25.14;62.08;101494.50;4950120;28;20171;-80
2021/09/07 10:11:36;;;;;;;14.95;10.43;;;;;;;25.37;61.16;101495.38;4921094;28;20047;-80
2021/09/07 10:14:07;;;;;;;15.70;10.77;;;;;;;25.59;60.00;101506.41;4929956;29;20118;-80
2021/09/07 10:19:13;;;;;;;15.82;10.48;;;;;;;25.80;58.73;101487.00;4949013;28;20047;-80
2021/09/07 10:26:50;;;;;;;12.73;9.20;;;;;;;25.65;57.13;101490.50;4950748;28;20072;-80
2021/09/07 10:29:26;;;;;;;15.73;9.70;;;;;;;25.45;56.37;101481.88;4948689;28;20522;-80
2021/09/07 10:31:55;;;;;;;18.60;10.40;;;;;;;25.49;56.82;101482.66;4943814;28;20043;-80
2021/09/07 10:34:25;;;;;;;14.45;8.77;;;;;;;25.32;56.59;101473.16;4949739;28;20510;-80
2021/09/07 10:36:59;;;;;;;13.02;8.93;;;;;;;25.35;56.13;101466.66;4948927;28;20059;-80
2021/09/07 10:39:33;;;;;;;16.27;9.55;;;;;;;25.30;55.95;101472.81;4953143;28;20067;-80
2021/09/07 10:42:03;;;;;;;12.07;7.80;;;;;;;25.11;56.48;101464.19;4939130;29;20070;-80
2021/09/07 10:44:32;;;;;;;11.82;8.15;;;;;;;25.03;56.76;101457.03;4944122;28;20183;-80
2021/09/07 10:47:05;;;;;;;13.40;7.78;;;;;;;25.07;56.75;101447.22;4920087;28;20043;-81
2021/09/07 10:49:37;;;;;;;12.45;9.18;;;;;;;25.10;56.57;101448.44;4918595;28;20061;-80
2021/09/07 10:52:04;;;;;;;14.25;8.60;;;;;;;25.00;56.64;101444.50;4932181;28;20055;-80
2021/09/07 10:54:33;;;;;;;13.05;8.30;;;;;;;24.91;56.77;101440.63;4937242;28;20099;-80
2021/09/07 10:57:01;;;;;;;15.27;7.40;;;;;;;24.69;57.36;101442.91;4942277;28;20137;-80
2021/09/07 10:59:47;;;;;;;11.23;8.02;;;;;;;24.50;57.65;101444.34;4955580;28;20047;-80
2021/09/07 11:02:34;;;;;;;9.90;6.70;;;;;;;24.31;58.38;101442.16;4949203;28;20126;-80
2021/09/07 11:05:25;;;;;;;10.45;6.63;;;;;;;24.31;58.94;101450.66;4947341;28;20523;-79
2021/09/07 11:08:03;;;;;;;13.05;8.77;;;;;;;24.20;58.87;101442.28;4949804;28;20059;-79
2021/09/07 11:10:33;;;;;;;12.57;9.38;;;;;;;23.78;59.23;101444.72;4947409;28;20086;-79
2021/09/07 11:13:03;;;;;;;19.20;11.05;;;;;;;23.68;59.69;101437.16;4932681;28;20043;-79
2021/09/07 11:15:38;;;;;;;12.73;9.10;;;;;;;23.47;59.75;101427.66;4930864;28;20078;-79
2021/09/07 11:18:09;;;;;;;14.48;10.05;;;;;;;23.18;60.28;101422.59;4946271;28;20035;-79
2021/09/07 11:20:40;;;;;;;12.07;8.23;;;;;;;23.07;60.73;101408.56;4950605;28;20074;-79